createdAt,value
2019-03-27T00:01:45.993Z,87.10
2019-03-27T00:04:12.179Z,86.99
2019-03-27T00:06:38.432Z,86.99
2019-03-27T00:09:05.233Z,87.15
2019-03-27T00:11:31.787Z,87.19
2019-03-27T00:13:58.045Z,87.24
2019-03-27T00:16:25.187Z,87.31
2019-03-27T00:18:51.991Z,87.33
2019-03-27T00:21:18.235Z,87.34
2019-03-27T00:23:44.495Z,87.35
2019-03-27T00:26:10.758Z,87.34
2019-03-27T00:28:36.887Z,87.28
2019-03-27T00:31:03.293Z,87.46
2019-03-27T00:33:29.679Z,87.50
2019-03-27T00:35:55.893Z,87.51
2019-03-27T00:38:22.022Z,87.52
2019-03-27T00:40:48.675Z,87.58
2019-03-27T00:43:14.835Z,87.58
2019-03-27T00:45:41.022Z,87.69
2019-03-27T00:48:07.218Z,87.76
2019-03-27T00:50:33.388Z,87.75
2019-03-27T00:52:59.839Z,87.65
2019-03-27T00:55:26.005Z,87.77
2019-03-27T00:57:52.124Z,87.67
2019-03-27T01:00:24.457Z,87.62
2019-03-27T01:02:51.612Z,87.59
2019-03-27T01:05:17.972Z,87.73
2019-03-27T01:07:44.242Z,87.75
2019-03-27T01:10:10.659Z,87.84
2019-03-27T01:12:36.775Z,87.87
2019-03-27T01:15:05.802Z,88.04
2019-03-27T01:17:31.963Z,87.98
2019-03-27T01:19:58.184Z,88.04
2019-03-27T01:22:24.301Z,88.03
2019-03-27T01:24:50.539Z,88.19
2019-03-27T01:27:16.691Z,88.08
2019-03-27T01:29:42.897Z,88.10
2019-03-27T01:32:10.136Z,88.08
2019-03-27T01:34:42.277Z,87.99
2019-03-27T01:37:08.439Z,88.02
2019-03-27T01:39:34.610Z,88.10
2019-03-27T01:42:00.722Z,88.27
2019-03-27T01:44:27.085Z,88.20
2019-03-27T01:46:56.115Z,88.20
2019-03-27T01:49:22.538Z,88.27
2019-03-27T01:51:48.772Z,88.20
2019-03-27T01:54:15.167Z,88.14
2019-03-27T01:56:41.384Z,88.08
2019-03-27T01:59:07.848Z,88.01
2019-03-27T02:01:34.239Z,88.11
2019-03-27T02:04:00.444Z,87.84
2019-03-27T02:06:26.820Z,87.80
2019-03-27T02:08:53.025Z,87.75
2019-03-27T02:11:19.204Z,87.65
2019-03-27T02:13:45.373Z,87.68
2019-03-27T02:16:11.524Z,87.56
2019-03-27T02:18:37.827Z,87.53
2019-03-27T02:21:04.083Z,87.59
2019-03-27T02:23:30.358Z,87.66
2019-03-27T02:25:58.275Z,87.56
2019-03-27T02:28:25.140Z,87.48
2019-03-27T02:30:51.372Z,87.55
2019-03-27T02:33:18.082Z,87.48
2019-03-27T02:42:50.448Z,87.52
2019-03-27T02:45:17.401Z,87.48
2019-03-27T02:47:44.045Z,87.48
2019-03-27T02:50:10.696Z,87.48
2019-03-27T02:52:38.083Z,87.50
2019-03-27T02:55:06.222Z,87.52
2019-03-27T02:57:33.766Z,87.53
2019-03-27T03:00:01.322Z,87.44
2019-03-27T03:02:29.641Z,87.45
2019-03-27T03:04:56.923Z,87.42
2019-03-27T03:07:23.698Z,87.47
2019-03-27T03:09:50.671Z,87.51
2019-03-27T03:12:17.266Z,87.51
2019-03-27T03:14:43.686Z,87.49
2019-03-27T03:17:09.856Z,87.42
2019-03-27T03:19:36.243Z,87.34
2019-03-27T03:22:03.675Z,87.33
2019-03-27T03:24:29.904Z,87.33
2019-03-27T03:26:56.157Z,87.37
2019-03-27T03:29:22.456Z,87.42
2019-03-27T03:31:48.627Z,87.52
2019-03-27T03:34:14.832Z,87.48
2019-03-27T03:36:40.972Z,87.51
2019-03-27T03:39:07.288Z,87.48
2019-03-27T03:41:33.588Z,87.49
2019-03-27T03:44:02.125Z,87.56
2019-03-27T03:46:28.317Z,87.53
2019-03-27T03:48:55.542Z,87.56
2019-03-27T03:51:21.764Z,87.67
2019-03-27T03:53:48.294Z,87.67
2019-03-27T03:56:15.046Z,87.13
2019-03-27T03:58:41.721Z,87.01
2019-03-27T04:01:09.909Z,86.68
2019-03-27T04:03:39.818Z,86.72
2019-03-27T04:06:06.184Z,86.82
2019-03-27T04:08:32.302Z,86.79
2019-03-27T04:10:58.602Z,86.74
2019-03-27T04:13:24.928Z,86.83
2019-03-27T04:15:51.373Z,86.68
2019-03-27T04:18:17.534Z,86.56
2019-03-27T04:20:43.765Z,86.29
2019-03-27T04:23:10.019Z,86.29
2019-03-27T04:26:07.116Z,86.38
2019-03-27T04:28:04.284Z,86.26
2019-03-27T04:30:30.603Z,86.36
2019-03-27T04:32:56.759Z,86.39
2019-03-27T04:35:23.053Z,86.28
2019-03-27T04:37:49.287Z,86.25
2019-03-27T04:40:15.386Z,86.20
2019-03-27T04:42:41.608Z,86.26
2019-03-27T04:45:08.809Z,86.33
2019-03-27T04:47:35.028Z,86.30
2019-03-27T04:50:01.200Z,86.33
2019-03-27T04:52:27.524Z,86.46
2019-03-27T04:54:53.734Z,86.48
2019-03-27T04:57:20.240Z,86.63
2019-03-27T04:59:46.774Z,86.67
2019-03-27T05:02:12.970Z,86.76
2019-03-27T05:04:39.326Z,86.68
2019-03-27T05:07:05.617Z,86.84
2019-03-27T05:09:31.922Z,87.01
2019-03-27T05:11:58.285Z,87.04
2019-03-27T05:14:24.560Z,87.04
2019-03-27T05:16:50.634Z,87.14
2019-03-27T05:19:16.853Z,87.30
2019-03-27T05:21:42.948Z,87.43
2019-03-27T05:24:09.215Z,87.53
2019-03-27T05:26:35.487Z,87.45
2019-03-27T05:29:01.750Z,87.37
2019-03-27T05:31:27.840Z,87.48
2019-03-27T05:33:54.710Z,87.47
2019-03-27T05:36:20.809Z,87.57
2019-03-27T05:38:47.035Z,87.75
2019-03-27T05:41:13.129Z,87.81
2019-03-27T05:43:39.370Z,87.74
2019-03-27T05:46:05.547Z,87.89
2019-03-27T05:48:32.115Z,87.87
2019-03-27T05:50:58.268Z,87.88
2019-03-27T05:53:24.426Z,87.62
2019-03-27T05:55:50.587Z,87.64
2019-03-27T05:58:16.775Z,87.66
2019-03-27T06:00:43.003Z,87.75
2019-03-27T06:03:09.132Z,87.85
2019-03-27T06:05:35.346Z,88.05
2019-03-27T06:08:01.526Z,88.13
2019-03-27T06:10:27.793Z,88.18
2019-03-27T06:12:54.065Z,88.15
2019-03-27T06:15:20.323Z,87.86
2019-03-27T06:17:46.529Z,87.96
2019-03-27T06:20:12.832Z,87.95
2019-03-27T06:22:39.051Z,87.90
2019-03-27T06:25:06.167Z,87.91
2019-03-27T06:27:32.396Z,87.96
2019-03-27T06:29:58.607Z,87.96
2019-03-27T06:32:25.206Z,87.83
2019-03-27T06:34:51.331Z,87.81
2019-03-27T06:37:17.528Z,87.79
2019-03-27T06:39:43.692Z,87.85
2019-03-27T06:42:09.984Z,88.07
2019-03-27T06:44:36.190Z,88.05
2019-03-27T06:47:03.294Z,87.95
2019-03-27T06:49:29.523Z,87.79
2019-03-27T06:51:55.675Z,87.89
2019-03-27T06:54:21.919Z,87.87
2019-03-27T06:56:48.138Z,87.74
2019-03-27T06:59:14.232Z,87.54
2019-03-27T07:01:40.598Z,87.57
2019-03-27T07:04:10.834Z,87.63
2019-03-27T07:06:34.814Z,87.76
2019-03-27T07:09:01.024Z,87.79
2019-03-27T07:11:27.107Z,87.80
2019-03-27T07:13:53.336Z,87.55
2019-03-27T07:16:19.429Z,87.53
2019-03-27T07:18:45.646Z,87.61
2019-03-27T07:21:11.838Z,87.71
2019-03-27T07:23:38.055Z,87.66
2019-03-27T07:26:04.223Z,87.64
2019-03-27T07:28:30.387Z,87.52
2019-03-27T07:30:56.531Z,87.44
2019-03-27T07:33:22.718Z,87.40
2019-03-27T07:35:48.822Z,87.34
2019-03-27T07:38:15.007Z,87.32
2019-03-27T07:40:41.150Z,87.26
2019-03-27T07:43:07.312Z,87.15
2019-03-27T07:45:33.702Z,86.96
2019-03-27T07:48:00.098Z,87.10
2019-03-27T07:50:26.262Z,87.26
2019-03-27T07:52:52.445Z,87.37
2019-03-27T07:55:19.970Z,87.46
2019-03-27T07:57:46.428Z,87.49
2019-03-27T08:00:16.323Z,87.17
2019-03-27T08:02:42.546Z,87.20
2019-03-27T08:05:09.862Z,87.20
2019-03-27T08:07:36.082Z,87.20
2019-03-27T08:10:04.788Z,87.40
2019-03-27T08:12:31.055Z,87.47
2019-03-27T08:14:57.362Z,87.21
2019-03-27T08:17:23.600Z,86.82
2019-03-27T08:19:49.706Z,86.76
2019-03-27T08:22:16.904Z,86.67
2019-03-27T08:24:43.060Z,86.52
2019-03-27T08:27:09.271Z,86.64
2019-03-27T08:29:35.432Z,86.71
2019-03-27T08:32:01.911Z,86.82
2019-03-27T08:34:28.208Z,86.74
2019-03-27T08:36:54.493Z,86.69
2019-03-27T08:39:20.718Z,86.52
2019-03-27T08:41:46.827Z,86.27
2019-03-27T08:44:13.018Z,86.43
2019-03-27T08:46:39.397Z,86.27
2019-03-27T08:49:05.601Z,86.44
2019-03-27T08:51:31.699Z,86.29
2019-03-27T08:53:58.019Z,86.16
2019-03-27T08:56:24.199Z,85.90
2019-03-27T08:58:50.502Z,85.71
2019-03-27T09:01:16.832Z,85.56
2019-03-27T09:03:43.084Z,85.27
2019-03-27T09:06:09.345Z,84.99
2019-03-27T09:08:35.585Z,84.74
2019-03-27T09:11:04.492Z,84.52
2019-03-27T09:13:29.782Z,83.82
2019-03-27T09:15:56.139Z,83.81
2019-03-27T09:18:22.408Z,83.91
2019-03-27T09:20:48.657Z,83.60
2019-03-27T09:23:14.982Z,83.63
2019-03-27T09:25:41.257Z,82.99
2019-03-27T09:28:07.715Z,83.02
2019-03-27T09:30:34.082Z,83.13
2019-03-27T09:33:00.366Z,82.84
2019-03-27T09:35:26.671Z,82.82
2019-03-27T09:37:52.886Z,83.01
2019-03-27T09:40:19.161Z,82.02
2019-03-27T09:42:45.383Z,81.67
2019-03-27T09:45:12.469Z,81.60
2019-03-27T09:47:38.775Z,81.55
2019-03-27T09:50:06.186Z,81.16
2019-03-27T09:52:32.387Z,81.03
2019-03-27T09:54:58.606Z,81.24
2019-03-27T09:57:24.810Z,80.83
2019-03-27T09:59:51.000Z,80.60
2019-03-27T10:02:17.161Z,80.74
2019-03-27T10:04:43.393Z,80.61
2019-03-27T10:07:10.497Z,80.73
2019-03-27T10:09:36.723Z,79.41
2019-03-27T10:12:03.085Z,78.49
2019-03-27T10:14:29.249Z,78.66
2019-03-27T10:16:55.403Z,78.96
2019-03-27T10:19:21.604Z,78.48
2019-03-27T10:21:47.979Z,78.08
2019-03-27T10:24:14.141Z,77.92
2019-03-27T10:26:42.668Z,78.62
2019-03-27T10:29:08.361Z,78.74
2019-03-27T10:31:34.505Z,78.98
2019-03-27T10:34:00.746Z,79.02
2019-03-27T10:36:26.857Z,79.02
2019-03-27T10:38:53.104Z,78.31
2019-03-27T10:41:19.224Z,78.72
2019-03-27T10:43:45.456Z,79.01
2019-03-27T10:46:11.610Z,78.89
2019-03-27T10:48:51.532Z,79.41
2019-03-27T10:51:05.918Z,79.65
2019-03-27T10:53:32.162Z,79.44
2019-03-27T10:55:58.307Z,79.40
2019-03-27T10:58:24.485Z,79.19
2019-03-27T11:00:50.619Z,79.16
2019-03-27T11:03:16.835Z,79.52
2019-03-27T11:05:43.012Z,79.62
2019-03-27T11:08:11.487Z,79.49
2019-03-27T11:10:37.323Z,79.19
2019-03-27T11:13:03.552Z,78.58
2019-03-27T11:15:30.820Z,78.81
2019-03-27T11:17:57.061Z,78.11
2019-03-27T11:20:31.019Z,78.27
2019-03-27T11:22:51.382Z,78.42
2019-03-27T11:25:17.524Z,78.21
2019-03-27T11:27:43.866Z,78.41
2019-03-27T11:30:10.366Z,78.67
2019-03-27T11:32:36.597Z,78.53
2019-03-27T11:35:03.310Z,78.32
2019-03-27T11:37:29.538Z,78.10
2019-03-27T11:39:55.686Z,77.42
2019-03-27T11:42:21.829Z,77.49
2019-03-27T11:44:47.993Z,77.73
2019-03-27T11:47:14.157Z,77.85
2019-03-27T11:49:40.327Z,77.74
2019-03-27T11:52:06.481Z,77.71
2019-03-27T11:54:32.670Z,77.52
2019-03-27T11:56:59.208Z,76.80
2019-03-27T11:59:25.604Z,76.41
2019-03-27T12:01:51.736Z,76.31
2019-03-27T12:04:18.002Z,75.96
2019-03-27T12:06:44.319Z,75.92
2019-03-27T12:09:10.581Z,75.72
2019-03-27T12:11:36.797Z,75.06
2019-03-27T12:14:03.202Z,75.04
2019-03-27T12:16:30.543Z,75.65
2019-03-27T12:18:56.698Z,75.78
2019-03-27T12:21:23.057Z,75.18
2019-03-27T12:23:49.227Z,74.47
2019-03-27T12:26:15.398Z,75.17
2019-03-27T12:28:41.568Z,75.42
2019-03-27T12:31:07.932Z,74.54
2019-03-27T12:33:34.019Z,74.21
2019-03-27T12:36:00.454Z,74.43
2019-03-27T12:38:26.564Z,73.43
2019-03-27T12:40:52.813Z,73.13
2019-03-27T12:43:18.978Z,73.07
2019-03-27T12:45:45.145Z,72.63
2019-03-27T12:48:12.014Z,72.24
2019-03-27T12:50:38.348Z,72.58
2019-03-27T12:53:04.649Z,72.60
2019-03-27T12:55:30.978Z,72.92
2019-03-27T12:57:57.286Z,72.94
2019-03-27T13:00:23.808Z,72.96
2019-03-27T13:02:49.903Z,72.16
2019-03-27T13:05:16.186Z,72.56
2019-03-27T13:07:49.792Z,72.13
2019-03-27T13:10:10.797Z,72.10
2019-03-27T13:12:37.234Z,72.06
2019-03-27T13:15:05.338Z,72.29
2019-03-27T13:17:34.223Z,72.32
2019-03-27T13:20:00.826Z,71.60
2019-03-27T13:22:27.075Z,71.31
2019-03-27T13:24:53.334Z,71.05
2019-03-27T13:27:19.611Z,70.49
2019-03-27T13:29:45.827Z,69.76
2019-03-27T13:32:12.075Z,69.32
2019-03-27T13:34:38.264Z,68.92
2019-03-27T13:37:04.411Z,68.60
2019-03-27T13:39:30.643Z,68.51
2019-03-27T13:41:56.807Z,69.37
2019-03-27T13:44:31.398Z,69.06
2019-03-27T13:46:51.082Z,68.94
2019-03-27T13:49:17.475Z,69.38
2019-03-27T13:51:43.670Z,69.67
2019-03-27T13:54:09.919Z,69.43
2019-03-27T13:56:36.120Z,69.59
2019-03-27T13:59:02.552Z,70.09
2019-03-27T14:01:29.756Z,70.15
2019-03-27T14:03:55.986Z,69.61
2019-03-27T14:06:22.088Z,69.96
2019-03-27T14:08:48.315Z,69.88
2019-03-27T14:11:14.403Z,69.93
2019-03-27T14:13:43.235Z,69.79
2019-03-27T14:16:08.598Z,69.33
2019-03-27T14:18:34.815Z,69.10
2019-03-27T14:21:00.902Z,68.55
2019-03-27T14:23:27.122Z,68.26
2019-03-27T14:25:53.324Z,68.17
2019-03-27T14:28:19.506Z,67.91
2019-03-27T14:30:50.849Z,67.87
2019-03-27T14:33:17.694Z,67.81
2019-03-27T14:35:43.936Z,67.78
2019-03-27T14:38:10.179Z,66.35
2019-03-27T14:40:36.326Z,66.02
2019-03-27T14:43:02.547Z,66.00
2019-03-27T14:45:28.747Z,66.32
2019-03-27T14:47:54.955Z,66.93
2019-03-27T14:50:21.087Z,66.70
2019-03-27T14:52:47.818Z,66.95
2019-03-27T14:55:14.121Z,66.89
2019-03-27T14:57:41.247Z,66.85
2019-03-27T15:00:09.270Z,66.74
2019-03-27T15:02:35.534Z,66.34
2019-03-27T15:05:01.738Z,66.40
2019-03-27T15:07:29.071Z,66.26
2019-03-27T15:09:55.322Z,66.02
2019-03-27T15:12:21.641Z,65.87
2019-03-27T15:14:47.835Z,65.95
2019-03-27T15:17:14.061Z,65.56
2019-03-27T15:19:40.268Z,65.67
2019-03-27T15:22:06.657Z,65.84
2019-03-27T15:24:32.752Z,65.66
2019-03-27T15:26:58.961Z,66.08
2019-03-27T15:29:25.064Z,66.89
2019-03-27T15:31:51.287Z,66.66
2019-03-27T15:34:17.484Z,67.12
2019-03-27T15:36:43.760Z,67.59
2019-03-27T15:39:09.993Z,67.58
2019-03-27T15:41:36.578Z,67.17
2019-03-27T15:44:03.025Z,67.39
2019-03-27T15:46:29.221Z,66.93
2019-03-27T15:48:56.431Z,66.95
2019-03-27T15:51:22.538Z,66.88
2019-03-27T15:53:48.744Z,67.38
2019-03-27T15:56:14.853Z,67.65
2019-03-27T15:58:41.162Z,67.52
2019-03-27T16:01:07.686Z,67.75
2019-03-27T16:03:34.007Z,67.75
2019-03-27T16:06:00.569Z,67.99
2019-03-27T16:08:27.198Z,68.66
2019-03-27T16:10:53.389Z,68.91
2019-03-27T16:13:19.877Z,69.03
2019-03-27T16:15:47.424Z,69.19
2019-03-27T16:18:16.752Z,69.49
2019-03-27T16:20:44.058Z,69.80
2019-03-27T16:23:10.453Z,69.69
2019-03-27T16:25:36.633Z,69.84
2019-03-27T16:28:03.121Z,70.16
2019-03-27T16:30:29.676Z,70.28
2019-03-27T16:32:55.905Z,70.25
2019-03-27T16:35:22.010Z,70.30
2019-03-27T16:37:48.311Z,70.39
2019-03-27T16:40:18.298Z,70.44
2019-03-27T16:42:44.665Z,70.68
2019-03-27T16:45:11.788Z,70.72
2019-03-27T16:47:38.224Z,70.72
2019-03-27T16:50:06.249Z,71.06
2019-03-27T16:52:32.643Z,71.19
2019-03-27T16:54:58.955Z,71.26
2019-03-27T16:57:25.203Z,71.18
2019-03-27T16:59:51.694Z,71.08
2019-03-27T17:02:18.063Z,71.18
2019-03-27T17:04:44.182Z,71.20
2019-03-27T17:07:10.446Z,71.16
2019-03-27T17:09:36.638Z,71.23
2019-03-27T17:12:02.995Z,71.27
2019-03-27T17:14:29.212Z,71.39
2019-03-27T17:16:57.437Z,71.25
2019-03-27T17:19:24.826Z,71.28
2019-03-27T17:21:51.209Z,71.39
2019-03-27T17:24:17.830Z,71.55
2019-03-27T17:26:44.031Z,71.69
2019-03-27T17:29:10.235Z,71.76
2019-03-27T17:31:36.546Z,71.67
2019-03-27T17:34:02.978Z,71.90
2019-03-27T17:36:29.777Z,72.61
2019-03-27T17:38:55.902Z,72.88
2019-03-27T17:41:22.219Z,73.37
2019-03-27T17:43:48.865Z,73.48
2019-03-27T17:46:15.152Z,73.80
2019-03-27T17:48:41.355Z,73.90
2019-03-27T17:51:07.600Z,73.76
2019-03-27T17:53:33.834Z,73.83
2019-03-27T17:56:00.169Z,73.98
2019-03-27T17:58:26.657Z,74.11
2019-03-27T18:00:52.981Z,74.09
2019-03-27T18:03:19.304Z,74.22
2019-03-27T18:05:45.476Z,74.07
2019-03-27T18:08:11.680Z,73.94
2019-03-27T18:10:37.802Z,73.83
2019-03-27T18:13:04.258Z,73.84
2019-03-27T18:15:31.812Z,73.65
2019-03-27T18:17:58.029Z,73.72
2019-03-27T18:20:24.716Z,73.79
2019-03-27T18:22:50.968Z,73.73
2019-03-27T18:25:17.121Z,73.73
2019-03-27T18:27:43.324Z,73.53
2019-03-27T18:30:09.845Z,73.82
2019-03-27T18:32:36.047Z,73.91
2019-03-27T18:35:03.728Z,73.89
2019-03-27T18:37:30.037Z,73.84
2019-03-27T18:39:56.296Z,73.74
2019-03-27T18:42:22.557Z,73.83
2019-03-27T18:44:48.677Z,73.90
2019-03-27T18:47:14.906Z,73.98
2019-03-27T18:49:41.073Z,73.98
2019-03-27T18:52:07.414Z,73.96
2019-03-27T18:54:33.702Z,73.72
2019-03-27T18:56:59.888Z,73.82
2019-03-27T18:59:26.163Z,73.76
2019-03-27T19:01:52.372Z,73.73
2019-03-27T19:04:19.521Z,73.89
2019-03-27T19:06:45.814Z,73.74
2019-03-27T19:09:11.982Z,73.79
2019-03-27T19:11:38.374Z,73.79
2019-03-27T19:14:04.704Z,73.70
2019-03-27T19:16:30.956Z,73.71
2019-03-27T19:18:57.051Z,73.66
2019-03-27T19:21:23.319Z,73.65
2019-03-27T19:23:49.562Z,73.89
2019-03-27T19:26:15.732Z,73.83
2019-03-27T19:28:42.016Z,73.75
2019-03-27T19:31:08.293Z,73.70
2019-03-27T19:33:34.586Z,73.73
2019-03-27T19:36:00.957Z,73.52
2019-03-27T19:38:27.148Z,73.70
2019-03-27T19:40:53.318Z,73.67
2019-03-27T19:43:19.430Z,73.51
2019-03-27T19:45:45.770Z,73.65
2019-03-27T19:48:11.931Z,73.82
2019-03-27T19:50:38.229Z,73.89
2019-03-27T19:53:04.674Z,73.78
2019-03-27T19:55:30.847Z,74.02
2019-03-27T19:57:57.271Z,74.29
2019-03-27T20:00:24.021Z,74.47
2019-03-27T20:02:50.459Z,74.45
2019-03-27T20:05:16.839Z,74.35
2019-03-27T20:07:43.383Z,74.38
2019-03-27T20:10:10.014Z,74.41
2019-03-27T20:12:36.218Z,74.38
2019-03-27T20:15:11.940Z,74.40
2019-03-27T20:17:33.247Z,74.45
2019-03-27T20:19:59.525Z,74.47
2019-03-27T20:22:25.761Z,74.45
2019-03-27T20:24:51.968Z,74.60
2019-03-27T20:27:18.217Z,74.60
2019-03-27T20:29:46.659Z,74.69
2019-03-27T20:32:13.060Z,74.71
2019-03-27T20:34:39.384Z,74.79
2019-03-27T20:37:05.510Z,74.75
2019-03-27T20:39:31.698Z,74.86
2019-03-27T20:41:57.900Z,74.83
2019-03-27T20:44:24.256Z,74.78
2019-03-27T20:46:50.392Z,74.71
2019-03-27T20:49:16.607Z,74.55
2019-03-27T20:51:42.796Z,74.58
2019-03-27T20:54:09.066Z,74.34
2019-03-27T20:56:35.450Z,74.39
2019-03-27T20:59:01.910Z,74.21
2019-03-27T21:01:28.169Z,74.29
2019-03-27T21:03:54.576Z,73.91
2019-03-27T21:06:20.861Z,74.04
2019-03-27T21:08:47.102Z,73.90
2019-03-27T21:11:13.240Z,73.53
2019-03-27T21:13:41.169Z,73.70
2019-03-27T21:16:07.463Z,73.43
2019-03-27T21:18:33.783Z,73.67
2019-03-27T21:21:00.089Z,73.74
2019-03-27T21:23:26.300Z,73.64
2019-03-27T21:25:52.511Z,73.68
2019-03-27T21:28:18.749Z,73.66
2019-03-27T21:30:44.857Z,73.58
2019-03-27T21:33:11.074Z,73.59
2019-03-27T21:35:37.302Z,73.46
2019-03-27T21:38:03.622Z,73.44
2019-03-27T21:40:29.879Z,73.45
2019-03-27T21:42:56.368Z,73.46
2019-03-27T21:45:22.685Z,73.19
2019-03-27T21:47:49.015Z,73.23
2019-03-27T21:50:15.139Z,73.33
2019-03-27T21:52:41.376Z,73.37
2019-03-27T21:55:21.556Z,73.42
2019-03-27T21:57:35.912Z,73.23
2019-03-27T22:00:03.827Z,73.38
2019-03-27T22:02:30.161Z,73.21
2019-03-27T22:04:56.386Z,73.45
2019-03-27T22:07:22.587Z,73.49
2019-03-27T22:09:48.780Z,73.60
2019-03-27T22:12:14.874Z,73.60
2019-03-27T22:14:41.391Z,73.62
2019-03-27T22:17:07.514Z,73.43
2019-03-27T22:19:33.746Z,73.53
2019-03-27T22:21:59.939Z,73.63
2019-03-27T22:24:26.237Z,73.57
2019-03-27T22:26:52.520Z,73.90
2019-03-27T22:29:18.748Z,73.87
2019-03-27T22:31:44.864Z,74.01
2019-03-27T22:34:11.186Z,74.43
2019-03-27T22:36:37.289Z,74.58
2019-03-27T22:39:06.429Z,74.63
2019-03-27T22:41:32.724Z,74.75
2019-03-27T22:43:58.985Z,74.93
2019-03-27T22:46:25.224Z,75.25
2019-03-27T22:48:51.439Z,75.13
2019-03-27T22:51:17.645Z,75.12
2019-03-27T22:53:43.732Z,75.24
2019-03-27T22:56:09.982Z,75.51
2019-03-27T22:58:36.072Z,75.72
2019-03-27T23:01:02.489Z,75.75
2019-03-27T23:03:29.294Z,75.97
2019-03-27T23:05:55.499Z,76.22
2019-03-27T23:08:21.583Z,76.40
2019-03-27T23:10:47.929Z,76.40
2019-03-27T23:13:15.939Z,76.62
2019-03-27T23:15:42.180Z,76.66
2019-03-27T23:18:08.282Z,76.70
2019-03-27T23:20:34.558Z,76.87
2019-03-27T23:23:00.649Z,77.00
2019-03-27T23:25:26.867Z,76.97
2019-03-27T23:27:53.016Z,77.27
2019-03-27T23:30:19.327Z,77.18
2019-03-27T23:32:45.512Z,77.33
2019-03-27T23:35:11.956Z,77.22
2019-03-27T23:37:38.160Z,77.19
2019-03-27T23:40:05.393Z,77.25
2019-03-27T23:42:31.657Z,76.96
2019-03-27T23:44:57.856Z,76.96
2019-03-27T23:47:23.960Z,76.63
2019-03-27T23:49:50.178Z,76.51
2019-03-27T23:52:16.285Z,76.39
2019-03-27T23:54:42.484Z,76.31
2019-03-27T23:57:08.648Z,76.33
2019-03-27T23:59:34.813Z,76.29
